Terminal Aerodrome Forecast
Issued by NWS

Home | Current Version | Previous Version | Text Only | Print | Product List | Glossary On
Versions: 1 2 3 4 5 6 7 8 9 10 11 12 13 14 15
000
FTUS43 KDVN 251730
TAFBRL
TAF
KBRL 251730Z 2518/2618 20012G18KT P6SM SCT020 BKN050
     FM260100 17007KT P6SM BKN150
     FM260900 19005KT 6SM BR VCSH BKN035
     FM261500 20010KT P6SM SCT120=

USA.gov is the U.S. government's official web portal to all federal, state and local government web resources and services.